sensor_id;sensor_type;location;lat;lon;timestamp;temperature;humidity
51855;DHT22;37895;53.240;6.572;2023-04-24T00:01:13;12.20;98.20
51855;DHT22;37895;53.240;6.572;2023-04-24T00:03:40;12.20;98.20
51855;DHT22;37895;53.240;6.572;2023-04-24T00:06:07;12.20;98.30
51855;DHT22;37895;53.240;6.572;2023-04-24T00:08:34;12.20;98.20
51855;DHT22;37895;53.240;6.572;2023-04-24T00:11:00;12.20;98.20
51855;DHT22;37895;53.240;6.572;2023-04-24T00:13:25;12.10;98.50
51855;DHT22;37895;53.240;6.572;2023-04-24T00:15:54;12.10;98.90
51855;DHT22;37895;53.240;6.572;2023-04-24T00:18:20;12.10;98.70
51855;DHT22;37895;53.240;6.572;2023-04-24T00:20:45;12.10;98.80
51855;DHT22;37895;53.240;6.572;2023-04-24T00:23:12;12.10;98.70
51855;DHT22;37895;53.240;6.572;2023-04-24T00:25:38;12.10;98.60
51855;DHT22;37895;53.240;6.572;2023-04-24T00:28:04;12.10;98.70
51855;DHT22;37895;53.240;6.572;2023-04-24T00:30:29;12.10;98.50
51855;DHT22;37895;53.240;6.572;2023-04-24T00:32:55;12.10;98.50
51855;DHT22;37895;53.240;6.572;2023-04-24T00:35:21;12.10;98.30
51855;DHT22;37895;53.240;6.572;2023-04-24T00:37:46;12.10;98.20
51855;DHT22;37895;53.240;6.572;2023-04-24T00:40:12;12.10;98.30
51855;DHT22;37895;53.240;6.572;2023-04-24T00:42:39;12.10;98.40
51855;DHT22;37895;53.240;6.572;2023-04-24T00:45:05;12.10;98.40
51855;DHT22;37895;53.240;6.572;2023-04-24T00:47:33;12.00;97.80
51855;DHT22;37895;53.240;6.572;2023-04-24T00:50:00;12.00;97.50
51855;DHT22;37895;53.240;6.572;2023-04-24T00:52:26;11.90;97.30
51855;DHT22;37895;53.240;6.572;2023-04-24T00:54:53;11.80;97.50
51855;DHT22;37895;53.240;6.572;2023-04-24T00:57:19;11.70;97.60
51855;DHT22;37895;53.240;6.572;2023-04-24T00:59:45;11.60;97.30
51855;DHT22;37895;53.240;6.572;2023-04-24T01:02:11;11.60;97.30
51855;DHT22;37895;53.240;6.572;2023-04-24T01:04:37;11.60;97.20
51855;DHT22;37895;53.240;6.572;2023-04-24T01:07:04;11.60;97.20
51855;DHT22;37895;53.240;6.572;2023-04-24T01:09:36;11.60;97.40
51855;DHT22;37895;53.240;6.572;2023-04-24T01:12:02;11.50;97.40
51855;DHT22;37895;53.240;6.572;2023-04-24T01:14:28;11.50;97.50
51855;DHT22;37895;53.240;6.572;2023-04-24T01:16:53;11.50;97.50
51855;DHT22;37895;53.240;6.572;2023-04-24T01:19:20;11.30;97.50
51855;DHT22;37895;53.240;6.572;2023-04-24T01:21:47;11.40;97.70
51855;DHT22;37895;53.240;6.572;2023-04-24T01:24:15;11.30;97.60
51855;DHT22;37895;53.240;6.572;2023-04-24T01:26:41;11.40;97.60
51855;DHT22;37895;53.240;6.572;2023-04-24T01:29:07;11.40;97.60
51855;DHT22;37895;53.240;6.572;2023-04-24T01:31:33;11.30;97.70
51855;DHT22;37895;53.240;6.572;2023-04-24T01:33:59;11.30;98.10
51855;DHT22;37895;53.240;6.572;2023-04-24T01:36:27;11.30;97.80
51855;DHT22;37895;53.240;6.572;2023-04-24T01:38:53;11.30;97.90
51855;DHT22;37895;53.240;6.572;2023-04-24T01:41:19;11.20;98.20
51855;DHT22;37895;53.240;6.572;2023-04-24T01:43:45;11.20;98.20
51855;DHT22;37895;53.240;6.572;2023-04-24T01:46:11;11.20;97.90
51855;DHT22;37895;53.240;6.572;2023-04-24T01:48:37;11.20;97.80
51855;DHT22;37895;53.240;6.572;2023-04-24T01:51:03;11.20;97.80
51855;DHT22;37895;53.240;6.572;2023-04-24T01:53:28;11.10;97.90
51855;DHT22;37895;53.240;6.572;2023-04-24T01:55:54;11.10;98.00
51855;DHT22;37895;53.240;6.572;2023-04-24T01:58:19;11.10;98.00
51855;DHT22;37895;53.240;6.572;2023-04-24T02:00:45;11.00;98.10
51855;DHT22;37895;53.240;6.572;2023-04-24T02:03:11;11.00;98.20
51855;DHT22;37895;53.240;6.572;2023-04-24T02:05:36;11.00;98.30
51855;DHT22;37895;53.240;6.572;2023-04-24T02:08:02;11.00;98.40
51855;DHT22;37895;53.240;6.572;2023-04-24T02:10:27;11.00;98.20
51855;DHT22;37895;53.240;6.572;2023-04-24T02:12:53;11.00;98.00
51855;DHT22;37895;53.240;6.572;2023-04-24T02:15:19;11.00;97.90
51855;DHT22;37895;53.240;6.572;2023-04-24T02:17:45;11.10;97.90
51855;DHT22;37895;53.240;6.572;2023-04-24T02:20:10;11.10;97.90
51855;DHT22;37895;53.240;6.572;2023-04-24T02:22:36;11.20;98.10
51855;DHT22;37895;53.240;6.572;2023-04-24T02:25:01;11.00;98.10
51855;DHT22;37895;53.240;6.572;2023-04-24T02:27:27;11.00;98.20
51855;DHT22;37895;53.240;6.572;2023-04-24T02:29:53;11.00;98.20
51855;DHT22;37895;53.240;6.572;2023-04-24T02:32:18;11.00;98.10
51855;DHT22;37895;53.240;6.572;2023-04-24T02:34:44;10.90;98.00
51855;DHT22;37895;53.240;6.572;2023-04-24T02:37:09;10.90;98.20
51855;DHT22;37895;53.240;6.572;2023-04-24T02:39:35;10.90;98.20
51855;DHT22;37895;53.240;6.572;2023-04-24T02:42:01;10.90;98.30
51855;DHT22;37895;53.240;6.572;2023-04-24T02:44:27;10.90;98.30
51855;DHT22;37895;53.240;6.572;2023-04-24T02:46:52;10.90;98.50
51855;DHT22;37895;53.240;6.572;2023-04-24T02:49:18;10.90;98.40
51855;DHT22;37895;53.240;6.572;2023-04-24T02:51:43;10.90;98.50
51855;DHT22;37895;53.240;6.572;2023-04-24T02:54:09;10.90;98.50
51855;DHT22;37895;53.240;6.572;2023-04-24T02:56:35;10.90;98.50
51855;DHT22;37895;53.240;6.572;2023-04-24T02:59:01;10.90;98.50
51855;DHT22;37895;53.240;6.572;2023-04-24T03:01:26;10.90;98.60
51855;DHT22;37895;53.240;6.572;2023-04-24T03:03:52;10.90;98.50
51855;DHT22;37895;53.240;6.572;2023-04-24T03:06:17;10.90;98.50
51855;DHT22;37895;53.240;6.572;2023-04-24T03:08:43;10.90;98.50
51855;DHT22;37895;53.240;6.572;2023-04-24T03:11:09;10.90;98.60
51855;DHT22;37895;53.240;6.572;2023-04-24T03:13:34;10.90;98.80
51855;DHT22;37895;53.240;6.572;2023-04-24T03:16:00;10.90;98.70
51855;DHT22;37895;53.240;6.572;2023-04-24T03:18:26;10.90;98.70
51855;DHT22;37895;53.240;6.572;2023-04-24T03:20:51;10.90;98.70
51855;DHT22;37895;53.240;6.572;2023-04-24T03:23:17;10.90;98.70
51855;DHT22;37895;53.240;6.572;2023-04-24T03:25:42;10.90;98.80
51855;DHT22;37895;53.240;6.572;2023-04-24T03:28:08;10.90;98.80
51855;DHT22;37895;53.240;6.572;2023-04-24T03:30:34;10.80;99.10
51855;DHT22;37895;53.240;6.572;2023-04-24T03:33:00;10.90;99.00
51855;DHT22;37895;53.240;6.572;2023-04-24T03:35:26;10.80;99.00
51855;DHT22;37895;53.240;6.572;2023-04-24T03:37:51;10.90;99.10
51855;DHT22;37895;53.240;6.572;2023-04-24T03:40:17;10.90;99.00
51855;DHT22;37895;53.240;6.572;2023-04-24T03:42:42;10.90;99.00
51855;DHT22;37895;53.240;6.572;2023-04-24T03:45:09;10.90;99.00
51855;DHT22;37895;53.240;6.572;2023-04-24T03:47:34;10.90;99.10
51855;DHT22;37895;53.240;6.572;2023-04-24T03:50:00;10.90;99.20
51855;DHT22;37895;53.240;6.572;2023-04-24T03:52:26;10.90;99.20
51855;DHT22;37895;53.240;6.572;2023-04-24T03:54:52;10.90;99.20
51855;DHT22;37895;53.240;6.572;2023-04-24T03:57:17;10.90;99.10
51855;DHT22;37895;53.240;6.572;2023-04-24T03:59:43;10.90;99.20
51855;DHT22;37895;53.240;6.572;2023-04-24T04:02:08;11.00;99.10
51855;DHT22;37895;53.240;6.572;2023-04-24T04:04:34;10.90;99.20
51855;DHT22;37895;53.240;6.572;2023-04-24T04:07:00;10.90;99.30
51855;DHT22;37895;53.240;6.572;2023-04-24T04:09:29;10.90;99.30
51855;DHT22;37895;53.240;6.572;2023-04-24T04:11:54;10.90;99.10
51855;DHT22;37895;53.240;6.572;2023-04-24T04:14:21;10.90;99.10
51855;DHT22;37895;53.240;6.572;2023-04-24T04:16:47;10.90;99.10
51855;DHT22;37895;53.240;6.572;2023-04-24T04:19:12;10.90;99.10
51855;DHT22;37895;53.240;6.572;2023-04-24T04:21:38;10.80;99.20
51855;DHT22;37895;53.240;6.572;2023-04-24T04:24:04;10.90;99.10
51855;DHT22;37895;53.240;6.572;2023-04-24T04:26:30;10.90;99.20
51855;DHT22;37895;53.240;6.572;2023-04-24T04:28:58;10.80;99.10
51855;DHT22;37895;53.240;6.572;2023-04-24T04:31:26;10.80;99.20
51855;DHT22;37895;53.240;6.572;2023-04-24T04:33:51;10.80;99.10
51855;DHT22;37895;53.240;6.572;2023-04-24T04:36:17;10.80;99.20
51855;DHT22;37895;53.240;6.572;2023-04-24T04:38:44;10.80;99.20
51855;DHT22;37895;53.240;6.572;2023-04-24T04:41:10;10.80;99.20
51855;DHT22;37895;53.240;6.572;2023-04-24T04:43:36;10.80;99.30
51855;DHT22;37895;53.240;6.572;2023-04-24T04:46:03;10.80;99.20
51855;DHT22;37895;53.240;6.572;2023-04-24T04:48:29;10.80;99.10
51855;DHT22;37895;53.240;6.572;2023-04-24T04:50:57;10.80;99.20
51855;DHT22;37895;53.240;6.572;2023-04-24T04:53:22;10.80;99.20
51855;DHT22;37895;53.240;6.572;2023-04-24T04:55:48;10.80;99.30
51855;DHT22;37895;53.240;6.572;2023-04-24T04:58:14;10.80;99.50
51855;DHT22;37895;53.240;6.572;2023-04-24T05:00:39;10.70;99.40
51855;DHT22;37895;53.240;6.572;2023-04-24T05:03:07;10.80;99.60
51855;DHT22;37895;53.240;6.572;2023-04-24T05:05:33;10.70;99.80
51855;DHT22;37895;53.240;6.572;2023-04-24T05:07:58;10.70;99.80
51855;DHT22;37895;53.240;6.572;2023-04-24T05:10:24;10.70;99.80
51855;DHT22;37895;53.240;6.572;2023-04-24T05:12:50;10.70;99.80
51855;DHT22;37895;53.240;6.572;2023-04-24T05:15:15;10.80;99.90
51855;DHT22;37895;53.240;6.572;2023-04-24T05:17:41;10.70;99.90
51855;DHT22;37895;53.240;6.572;2023-04-24T05:20:07;10.70;99.90
51855;DHT22;37895;53.240;6.572;2023-04-24T05:22:33;10.80;99.90
51855;DHT22;37895;53.240;6.572;2023-04-24T05:24:59;10.70;99.90
51855;DHT22;37895;53.240;6.572;2023-04-24T05:27:24;10.70;99.90
51855;DHT22;37895;53.240;6.572;2023-04-24T05:29:50;10.80;99.90
51855;DHT22;37895;53.240;6.572;2023-04-24T05:32:16;10.70;99.90
51855;DHT22;37895;53.240;6.572;2023-04-24T05:34:42;10.80;99.90
51855;DHT22;37895;53.240;6.572;2023-04-24T05:37:07;10.70;99.90
51855;DHT22;37895;53.240;6.572;2023-04-24T05:39:35;10.80;99.90
51855;DHT22;37895;53.240;6.572;2023-04-24T05:42:02;10.70;99.90
51855;DHT22;37895;53.240;6.572;2023-04-24T05:44:28;10.60;99.90
51855;DHT22;37895;53.240;6.572;2023-04-24T05:46:54;10.60;99.90
51855;DHT22;37895;53.240;6.572;2023-04-24T05:49:21;10.60;99.90
51855;DHT22;37895;53.240;6.572;2023-04-24T05:51:47;10.50;99.90
51855;DHT22;37895;53.240;6.572;2023-04-24T05:54:12;10.50;99.90
51855;DHT22;37895;53.240;6.572;2023-04-24T05:56:39;10.50;99.90
51855;DHT22;37895;53.240;6.572;2023-04-24T05:59:04;10.50;99.90
51855;DHT22;37895;53.240;6.572;2023-04-24T06:01:30;10.60;99.90
51855;DHT22;37895;53.240;6.572;2023-04-24T06:03:56;10.60;99.90
51855;DHT22;37895;53.240;6.572;2023-04-24T06:06:23;10.60;99.90
51855;DHT22;37895;53.240;6.572;2023-04-24T06:08:49;10.40;99.90
51855;DHT22;37895;53.240;6.572;2023-04-24T06:11:15;10.40;99.90
51855;DHT22;37895;53.240;6.572;2023-04-24T06:13:41;10.40;99.90
51855;DHT22;37895;53.240;6.572;2023-04-24T06:16:06;10.40;99.90
51855;DHT22;37895;53.240;6.572;2023-04-24T06:18:32;10.40;99.90
51855;DHT22;37895;53.240;6.572;2023-04-24T06:20:58;10.30;99.90
51855;DHT22;37895;53.240;6.572;2023-04-24T06:23:23;10.30;99.90
51855;DHT22;37895;53.240;6.572;2023-04-24T06:25:49;10.30;99.90
51855;DHT22;37895;53.240;6.572;2023-04-24T06:28:15;10.30;99.90
51855;DHT22;37895;53.240;6.572;2023-04-24T06:30:41;10.30;99.90
51855;DHT22;37895;53.240;6.572;2023-04-24T06:33:06;10.30;99.90
51855;DHT22;37895;53.240;6.572;2023-04-24T06:35:32;10.30;99.90
51855;DHT22;37895;53.240;6.572;2023-04-24T06:37:58;10.30;99.90
51855;DHT22;37895;53.240;6.572;2023-04-24T06:40:23;10.30;99.90
51855;DHT22;37895;53.240;6.572;2023-04-24T06:42:49;10.30;99.90
51855;DHT22;37895;53.240;6.572;2023-04-24T06:45:15;10.30;99.90
51855;DHT22;37895;53.240;6.572;2023-04-24T06:47:41;10.40;99.90
51855;DHT22;37895;53.240;6.572;2023-04-24T06:50:07;10.40;99.90
51855;DHT22;37895;53.240;6.572;2023-04-24T06:52:32;10.40;99.90
51855;DHT22;37895;53.240;6.572;2023-04-24T06:55:02;10.40;99.90
51855;DHT22;37895;53.240;6.572;2023-04-24T06:57:28;10.40;99.90
51855;DHT22;37895;53.240;6.572;2023-04-24T06:59:55;10.30;99.90
51855;DHT22;37895;53.240;6.572;2023-04-24T07:02:21;10.30;99.90
51855;DHT22;37895;53.240;6.572;2023-04-24T07:04:46;10.30;99.90
51855;DHT22;37895;53.240;6.572;2023-04-24T07:07:13;10.30;99.90
51855;DHT22;37895;53.240;6.572;2023-04-24T07:09:40;10.30;99.90
51855;DHT22;37895;53.240;6.572;2023-04-24T07:12:08;10.30;99.90
51855;DHT22;37895;53.240;6.572;2023-04-24T07:14:36;10.30;99.90
51855;DHT22;37895;53.240;6.572;2023-04-24T07:17:05;10.20;99.90
51855;DHT22;37895;53.240;6.572;2023-04-24T07:19:33;10.10;99.90
51855;DHT22;37895;53.240;6.572;2023-04-24T07:21:59;10.10;99.90
51855;DHT22;37895;53.240;6.572;2023-04-24T07:24:25;10.00;99.90
51855;DHT22;37895;53.240;6.572;2023-04-24T07:26:52;9.90;99.90
51855;DHT22;37895;53.240;6.572;2023-04-24T07:29:18;9.90;99.90
51855;DHT22;37895;53.240;6.572;2023-04-24T07:31:44;9.90;99.90
51855;DHT22;37895;53.240;6.572;2023-04-24T07:34:09;9.90;99.90
51855;DHT22;37895;53.240;6.572;2023-04-24T07:36:35;9.90;99.90
51855;DHT22;37895;53.240;6.572;2023-04-24T07:39:04;9.80;99.90
51855;DHT22;37895;53.240;6.572;2023-04-24T07:41:29;9.80;99.90
51855;DHT22;37895;53.240;6.572;2023-04-24T07:43:55;9.90;99.90
51855;DHT22;37895;53.240;6.572;2023-04-24T07:46:21;9.90;99.90
51855;DHT22;37895;53.240;6.572;2023-04-24T07:48:46;9.90;99.90
51855;DHT22;37895;53.240;6.572;2023-04-24T07:51:14;10.00;99.90
51855;DHT22;37895;53.240;6.572;2023-04-24T07:53:40;10.00;99.90
51855;DHT22;37895;53.240;6.572;2023-04-24T07:56:05;10.00;99.90
51855;DHT22;37895;53.240;6.572;2023-04-24T07:58:31;10.00;99.90
51855;DHT22;37895;53.240;6.572;2023-04-24T08:00:57;9.90;99.90
51855;DHT22;37895;53.240;6.572;2023-04-24T08:03:22;9.90;99.90
51855;DHT22;37895;53.240;6.572;2023-04-24T08:05:49;10.00;99.90
51855;DHT22;37895;53.240;6.572;2023-04-24T08:08:16;9.80;99.90
51855;DHT22;37895;53.240;6.572;2023-04-24T08:10:42;9.70;99.90
51855;DHT22;37895;53.240;6.572;2023-04-24T08:13:07;9.70;99.90
51855;DHT22;37895;53.240;6.572;2023-04-24T08:15:33;9.80;99.90
51855;DHT22;37895;53.240;6.572;2023-04-24T08:17:59;9.80;99.90
51855;DHT22;37895;53.240;6.572;2023-04-24T08:20:25;9.80;99.90
51855;DHT22;37895;53.240;6.572;2023-04-24T08:22:50;9.80;99.90
51855;DHT22;37895;53.240;6.572;2023-04-24T08:25:16;9.80;99.90
51855;DHT22;37895;53.240;6.572;2023-04-24T08:27:43;9.80;99.90
51855;DHT22;37895;53.240;6.572;2023-04-24T08:30:09;9.90;99.90
51855;DHT22;37895;53.240;6.572;2023-04-24T08:32:36;9.90;99.90
51855;DHT22;37895;53.240;6.572;2023-04-24T08:35:02;9.80;99.90
51855;DHT22;37895;53.240;6.572;2023-04-24T08:37:29;9.80;99.90
51855;DHT22;37895;53.240;6.572;2023-04-24T08:39:54;9.80;99.90
51855;DHT22;37895;53.240;6.572;2023-04-24T08:42:20;9.80;99.90
51855;DHT22;37895;53.240;6.572;2023-04-24T08:44:48;9.70;99.90
51855;DHT22;37895;53.240;6.572;2023-04-24T08:47:15;9.70;99.90
51855;DHT22;37895;53.240;6.572;2023-04-24T08:49:41;9.70;99.90
51855;DHT22;37895;53.240;6.572;2023-04-24T08:52:06;9.70;99.70
51855;DHT22;37895;53.240;6.572;2023-04-24T08:54:36;9.60;99.60
51855;DHT22;37895;53.240;6.572;2023-04-24T08:57:02;9.60;99.00
51855;DHT22;37895;53.240;6.572;2023-04-24T08:59:32;9.50;99.10
51855;DHT22;37895;53.240;6.572;2023-04-24T09:01:59;9.50;99.30
51855;DHT22;37895;53.240;6.572;2023-04-24T09:04:25;9.60;99.10
51855;DHT22;37895;53.240;6.572;2023-04-24T09:06:55;9.50;99.10
51855;DHT22;37895;53.240;6.572;2023-04-24T09:09:21;9.50;99.00
51855;DHT22;37895;53.240;6.572;2023-04-24T09:11:49;9.40;98.90
51855;DHT22;37895;53.240;6.572;2023-04-24T09:14:15;9.40;98.80
51855;DHT22;37895;53.240;6.572;2023-04-24T09:16:42;9.40;98.70
51855;DHT22;37895;53.240;6.572;2023-04-24T09:19:08;9.40;98.60
51855;DHT22;37895;53.240;6.572;2023-04-24T09:21:34;9.40;98.60
51855;DHT22;37895;53.240;6.572;2023-04-24T09:24:07;9.40;98.50
51855;DHT22;37895;53.240;6.572;2023-04-24T09:26:35;9.30;98.30
51855;DHT22;37895;53.240;6.572;2023-04-24T09:29:03;9.50;98.10
51855;DHT22;37895;53.240;6.572;2023-04-24T09:31:29;9.50;98.00
51855;DHT22;37895;53.240;6.572;2023-04-24T09:34:05;9.50;97.70
51855;DHT22;37895;53.240;6.572;2023-04-24T09:36:35;9.50;97.70
51855;DHT22;37895;53.240;6.572;2023-04-24T09:39:12;9.60;97.60
51855;DHT22;37895;53.240;6.572;2023-04-24T09:41:55;9.60;97.30
51855;DHT22;37895;53.240;6.572;2023-04-24T09:44:26;9.60;97.50
51855;DHT22;37895;53.240;6.572;2023-04-24T09:47:00;9.50;97.50
51855;DHT22;37895;53.240;6.572;2023-04-24T09:49:30;9.50;98.00
51855;DHT22;37895;53.240;6.572;2023-04-24T09:52:09;9.50;97.40
51855;DHT22;37895;53.240;6.572;2023-04-24T09:54:36;9.40;97.50
51855;DHT22;37895;53.240;6.572;2023-04-24T09:57:02;9.50;97.40
51855;DHT22;37895;53.240;6.572;2023-04-24T09:59:28;9.50;97.30
51855;DHT22;37895;53.240;6.572;2023-04-24T10:01:55;9.50;96.90
51855;DHT22;37895;53.240;6.572;2023-04-24T10:04:24;9.60;96.60
51855;DHT22;37895;53.240;6.572;2023-04-24T10:06:52;9.70;96.10
51855;DHT22;37895;53.240;6.572;2023-04-24T10:09:19;9.80;95.20
51855;DHT22;37895;53.240;6.572;2023-04-24T10:11:47;9.90;95.30
51855;DHT22;37895;53.240;6.572;2023-04-24T10:14:14;10.10;94.40
51855;DHT22;37895;53.240;6.572;2023-04-24T10:16:40;10.30;94.10
51855;DHT22;37895;53.240;6.572;2023-04-24T10:19:07;10.30;94.60
51855;DHT22;37895;53.240;6.572;2023-04-24T10:21:34;10.50;94.00
51855;DHT22;37895;53.240;6.572;2023-04-24T10:24:00;10.60;93.30
51855;DHT22;37895;53.240;6.572;2023-04-24T10:26:29;10.70;93.50
51855;DHT22;37895;53.240;6.572;2023-04-24T10:28:57;10.90;92.40
51855;DHT22;37895;53.240;6.572;2023-04-24T10:31:23;11.00;91.00
51855;DHT22;37895;53.240;6.572;2023-04-24T10:33:50;11.10;90.80
51855;DHT22;37895;53.240;6.572;2023-04-24T10:36:17;11.10;90.80
51855;DHT22;37895;53.240;6.572;2023-04-24T10:38:45;11.20;91.60
51855;DHT22;37895;53.240;6.572;2023-04-24T10:41:13;11.20;91.40
51855;DHT22;37895;53.240;6.572;2023-04-24T10:43:45;11.20;91.40
51855;DHT22;37895;53.240;6.572;2023-04-24T10:46:18;11.10;90.80
51855;DHT22;37895;53.240;6.572;2023-04-24T10:48:55;11.30;90.40
51855;DHT22;37895;53.240;6.572;2023-04-24T10:51:22;11.30;90.20
51855;DHT22;37895;53.240;6.572;2023-04-24T10:53:50;11.20;90.10
51855;DHT22;37895;53.240;6.572;2023-04-24T10:56:17;11.20;90.40
51855;DHT22;37895;53.240;6.572;2023-04-24T10:58:45;11.10;90.40
51855;DHT22;37895;53.240;6.572;2023-04-24T11:01:27;11.20;90.50
51855;DHT22;37895;53.240;6.572;2023-04-24T11:04:01;11.20;90.50
51855;DHT22;37895;53.240;6.572;2023-04-24T11:06:36;11.10;90.10
51855;DHT22;37895;53.240;6.572;2023-04-24T11:09:09;11.30;89.60
51855;DHT22;37895;53.240;6.572;2023-04-24T11:11:38;11.40;89.90
51855;DHT22;37895;53.240;6.572;2023-04-24T11:14:08;11.30;90.30
51855;DHT22;37895;53.240;6.572;2023-04-24T11:24:32;11.00;90.30
51855;DHT22;37895;53.240;6.572;2023-04-24T11:34:54;10.90;87.90
51855;DHT22;37895;53.240;6.572;2023-04-24T11:37:33;10.70;89.80
51855;DHT22;37895;53.240;6.572;2023-04-24T11:39:59;10.70;90.40
51855;DHT22;37895;53.240;6.572;2023-04-24T11:42:25;10.50;90.40
51855;DHT22;37895;53.240;6.572;2023-04-24T11:44:54;10.50;90.30
51855;DHT22;37895;53.240;6.572;2023-04-24T11:47:30;10.50;90.00
51855;DHT22;37895;53.240;6.572;2023-04-24T11:49:58;10.40;90.30
51855;DHT22;37895;53.240;6.572;2023-04-24T11:52:24;10.50;89.40
51855;DHT22;37895;53.240;6.572;2023-04-24T11:54:50;10.60;88.10
51855;DHT22;37895;53.240;6.572;2023-04-24T11:57:16;10.50;87.90
51855;DHT22;37895;53.240;6.572;2023-04-24T11:59:44;10.50;88.90
51855;DHT22;37895;53.240;6.572;2023-04-24T12:02:28;10.40;89.20
51855;DHT22;37895;53.240;6.572;2023-04-24T12:04:54;10.40;89.90
51855;DHT22;37895;53.240;6.572;2023-04-24T12:07:22;10.40;89.60
51855;DHT22;37895;53.240;6.572;2023-04-24T12:09:55;10.30;90.20
51855;DHT22;37895;53.240;6.572;2023-04-24T12:12:24;10.30;90.10
51855;DHT22;37895;53.240;6.572;2023-04-24T12:14:55;10.40;90.50
51855;DHT22;37895;53.240;6.572;2023-04-24T12:17:29;10.40;90.50
51855;DHT22;37895;53.240;6.572;2023-04-24T12:20:00;10.30;90.60
51855;DHT22;37895;53.240;6.572;2023-04-24T12:22:26;10.30;90.80
51855;DHT22;37895;53.240;6.572;2023-04-24T12:25:03;10.30;90.70
51855;DHT22;37895;53.240;6.572;2023-04-24T12:27:33;10.40;90.80
51855;DHT22;37895;53.240;6.572;2023-04-24T12:30:01;10.50;89.70
51855;DHT22;37895;53.240;6.572;2023-04-24T12:32:28;10.60;88.70
51855;DHT22;37895;53.240;6.572;2023-04-24T12:34:54;10.70;87.00
51855;DHT22;37895;53.240;6.572;2023-04-24T12:37:20;10.80;87.60
51855;DHT22;37895;53.240;6.572;2023-04-24T12:42:30;11.20;85.10
51855;DHT22;37895;53.240;6.572;2023-04-24T12:45:00;11.30;83.30
51855;DHT22;37895;53.240;6.572;2023-04-24T12:47:27;11.40;82.30
51855;DHT22;37895;53.240;6.572;2023-04-24T12:49:53;11.30;82.10
51855;DHT22;37895;53.240;6.572;2023-04-24T12:52:21;11.20;82.60
51855;DHT22;37895;53.240;6.572;2023-04-24T12:54:47;11.20;82.30
51855;DHT22;37895;53.240;6.572;2023-04-24T12:57:12;11.10;81.10
51855;DHT22;37895;53.240;6.572;2023-04-24T12:59:38;10.90;82.50
51855;DHT22;37895;53.240;6.572;2023-04-24T13:02:04;10.90;83.20
51855;DHT22;37895;53.240;6.572;2023-04-24T13:04:30;10.70;84.30
51855;DHT22;37895;53.240;6.572;2023-04-24T13:06:56;10.70;83.40
51855;DHT22;37895;53.240;6.572;2023-04-24T13:09:21;10.60;84.70
51855;DHT22;37895;53.240;6.572;2023-04-24T13:11:47;10.50;86.30
51855;DHT22;37895;53.240;6.572;2023-04-24T13:14:13;10.50;85.20
51855;DHT22;37895;53.240;6.572;2023-04-24T13:16:38;10.40;86.50
51855;DHT22;37895;53.240;6.572;2023-04-24T13:19:04;10.20;87.50
51855;DHT22;37895;53.240;6.572;2023-04-24T13:21:29;10.10;87.90
51855;DHT22;37895;53.240;6.572;2023-04-24T13:23:55;10.10;89.50
51855;DHT22;37895;53.240;6.572;2023-04-24T13:26:21;10.10;89.50
51855;DHT22;37895;53.240;6.572;2023-04-24T13:28:47;10.10;89.90
51855;DHT22;37895;53.240;6.572;2023-04-24T13:31:12;10.20;89.60
51855;DHT22;37895;53.240;6.572;2023-04-24T13:33:39;10.10;89.80
51855;DHT22;37895;53.240;6.572;2023-04-24T13:36:05;10.10;90.20
51855;DHT22;37895;53.240;6.572;2023-04-24T13:38:31;10.10;90.10
51855;DHT22;37895;53.240;6.572;2023-04-24T13:40:57;10.20;90.00
51855;DHT22;37895;53.240;6.572;2023-04-24T13:43:22;10.30;89.90
51855;DHT22;37895;53.240;6.572;2023-04-24T13:45:48;10.40;86.70
51855;DHT22;37895;53.240;6.572;2023-04-24T13:48:14;10.40;86.70
51855;DHT22;37895;53.240;6.572;2023-04-24T13:50:43;10.50;86.90
51855;DHT22;37895;53.240;6.572;2023-04-24T13:53:09;10.50;87.10
51855;DHT22;37895;53.240;6.572;2023-04-24T13:55:35;10.60;86.30
51855;DHT22;37895;53.240;6.572;2023-04-24T13:58:01;10.50;86.90
51855;DHT22;37895;53.240;6.572;2023-04-24T14:00:28;10.30;86.40
51855;DHT22;37895;53.240;6.572;2023-04-24T14:02:53;10.40;87.10
51855;DHT22;37895;53.240;6.572;2023-04-24T14:05:19;10.30;89.00
51855;DHT22;37895;53.240;6.572;2023-04-24T14:07:46;10.20;90.50
51855;DHT22;37895;53.240;6.572;2023-04-24T14:10:12;10.00;91.80
51855;DHT22;37895;53.240;6.572;2023-04-24T14:12:37;9.90;92.50
51855;DHT22;37895;53.240;6.572;2023-04-24T14:15:04;9.80;92.80
51855;DHT22;37895;53.240;6.572;2023-04-24T14:17:30;9.70;92.90
51855;DHT22;37895;53.240;6.572;2023-04-24T14:19:56;9.70;93.10
51855;DHT22;37895;53.240;6.572;2023-04-24T14:22:22;9.80;93.20
51855;DHT22;37895;53.240;6.572;2023-04-24T14:24:48;9.80;93.00
51855;DHT22;37895;53.240;6.572;2023-04-24T14:27:14;9.80;93.20
51855;DHT22;37895;53.240;6.572;2023-04-24T14:29:39;9.80;93.10
51855;DHT22;37895;53.240;6.572;2023-04-24T14:32:05;9.90;92.90
51855;DHT22;37895;53.240;6.572;2023-04-24T14:34:30;9.80;93.10
51855;DHT22;37895;53.240;6.572;2023-04-24T14:36:56;9.80;93.20
51855;DHT22;37895;53.240;6.572;2023-04-24T14:39:22;9.80;93.10
51855;DHT22;37895;53.240;6.572;2023-04-24T14:41:47;9.80;92.80
51855;DHT22;37895;53.240;6.572;2023-04-24T14:44:13;9.80;93.20
51855;DHT22;37895;53.240;6.572;2023-04-24T14:46:39;9.70;93.20
51855;DHT22;37895;53.240;6.572;2023-04-24T14:49:05;9.70;93.70
51855;DHT22;37895;53.240;6.572;2023-04-24T14:51:30;9.80;93.70
51855;DHT22;37895;53.240;6.572;2023-04-24T14:53:56;9.80;93.70
51855;DHT22;37895;53.240;6.572;2023-04-24T14:56:23;9.90;93.20
51855;DHT22;37895;53.240;6.572;2023-04-24T14:58:48;10.00;92.70
51855;DHT22;37895;53.240;6.572;2023-04-24T15:01:14;10.00;92.60
51855;DHT22;37895;53.240;6.572;2023-04-24T15:03:42;9.90;93.40
51855;DHT22;37895;53.240;6.572;2023-04-24T15:06:08;9.90;93.60
51855;DHT22;37895;53.240;6.572;2023-04-24T15:08:34;9.90;93.90
51855;DHT22;37895;53.240;6.572;2023-04-24T15:11:00;9.90;93.80
51855;DHT22;37895;53.240;6.572;2023-04-24T15:13:25;9.90;93.30
51855;DHT22;37895;53.240;6.572;2023-04-24T15:15:51;9.90;93.30
51855;DHT22;37895;53.240;6.572;2023-04-24T15:18:16;9.90;93.40
51855;DHT22;37895;53.240;6.572;2023-04-24T15:20:42;9.90;93.50
51855;DHT22;37895;53.240;6.572;2023-04-24T15:23:08;9.90;93.70
51855;DHT22;37895;53.240;6.572;2023-04-24T15:25:35;9.90;93.80
51855;DHT22;37895;53.240;6.572;2023-04-24T15:28:00;9.90;93.90
51855;DHT22;37895;53.240;6.572;2023-04-24T15:30:26;9.90;93.70
51855;DHT22;37895;53.240;6.572;2023-04-24T15:32:52;9.90;93.90
51855;DHT22;37895;53.240;6.572;2023-04-24T15:35:18;9.90;94.00
51855;DHT22;37895;53.240;6.572;2023-04-24T15:37:44;10.10;93.70
51855;DHT22;37895;53.240;6.572;2023-04-24T15:40:10;10.00;93.60
51855;DHT22;37895;53.240;6.572;2023-04-24T15:42:38;10.10;93.60
51855;DHT22;37895;53.240;6.572;2023-04-24T15:45:04;10.20;93.30
51855;DHT22;37895;53.240;6.572;2023-04-24T15:47:32;10.20;92.90
51855;DHT22;37895;53.240;6.572;2023-04-24T15:49:58;10.20;93.10